createdAt,value
2022-08-07T00:00:07.253Z,14.26
2022-08-07T00:02:41.430Z,14.22
2022-08-07T00:05:14.789Z,14.21
2022-08-07T00:07:45.079Z,14.18
2022-08-07T00:10:26.953Z,14.16
2022-08-07T00:13:00.763Z,14.13
2022-08-07T00:15:35.889Z,14.12
2022-08-07T00:18:19.329Z,13.96
2022-08-07T00:20:50.920Z,14.00
2022-08-07T00:23:21.922Z,14.02
2022-08-07T00:26:00.125Z,14.01
2022-08-07T00:28:33.975Z,14.05
2022-08-07T00:31:12.638Z,14.06
2022-08-07T00:33:47.717Z,14.07
2022-08-07T00:36:18.188Z,14.09
2022-08-07T00:38:48.345Z,14.11
2022-08-07T00:41:27.172Z,14.11
2022-08-07T00:44:00.387Z,14.08
2022-08-07T00:46:32.983Z,14.08
2022-08-07T00:49:03.746Z,14.06
2022-08-07T00:51:57.676Z,14.02
2022-08-07T00:54:24.509Z,14.03
2022-08-07T00:56:54.843Z,13.98
2022-08-07T00:59:35.145Z,13.83
2022-08-07T01:02:14.075Z,13.93
2022-08-07T01:05:00.172Z,13.95
2022-08-07T01:07:31.140Z,13.95
2022-08-07T01:10:07.235Z,13.94
2022-08-07T01:12:53.321Z,13.86
2022-08-07T01:15:36.112Z,13.95
2022-08-07T01:18:17.168Z,13.91
2022-08-07T01:21:22.502Z,13.89
2022-08-07T01:23:54.931Z,13.85
2022-08-07T01:26:26.009Z,13.83
2022-08-07T01:28:56.981Z,13.79
2022-08-07T01:31:41.575Z,13.76
2022-08-07T01:34:12.624Z,13.73
2022-08-07T01:36:44.079Z,13.73
2022-08-07T01:39:15.608Z,13.69
2022-08-07T01:42:03.676Z,13.71
2022-08-07T01:44:37.290Z,13.71
2022-08-07T01:48:16.632Z,13.67
2022-08-07T01:49:59.258Z,13.65
2022-08-07T01:52:34.508Z,13.61
2022-08-07T01:55:06.880Z,13.52
2022-08-07T01:58:05.692Z,13.56
2022-08-07T02:00:33.046Z,13.54
2022-08-07T02:03:32.124Z,13.54
2022-08-07T02:06:30.794Z,13.54
2022-08-07T02:09:05.651Z,13.54
2022-08-07T02:12:02.903Z,13.50
2022-08-07T02:14:40.787Z,13.51
2022-08-07T02:17:27.700Z,13.51
2022-08-07T02:20:09.408Z,13.51
2022-08-07T02:22:54.915Z,13.54
2022-08-07T02:26:10.859Z,13.52
2022-08-07T02:28:24.563Z,13.49
2022-08-07T02:30:57.792Z,13.47
2022-08-07T02:33:42.038Z,13.44
2022-08-07T02:36:30.916Z,13.46
2022-08-07T02:39:16.413Z,13.44
2022-08-07T02:41:56.519Z,13.37
2022-08-07T02:44:34.660Z,13.37
2022-08-07T02:47:07.099Z,13.33
2022-08-07T02:49:57.628Z,13.28
2022-08-07T02:52:34.979Z,13.26
2022-08-07T02:55:15.448Z,13.22
2022-08-07T02:58:03.275Z,13.23
2022-08-07T03:00:35.929Z,13.20
2022-08-07T03:03:13.345Z,13.20
2022-08-07T03:05:45.113Z,13.21
2022-08-07T03:08:18.227Z,13.18
2022-08-07T03:10:58.159Z,13.14
2022-08-07T03:13:29.466Z,13.12
2022-08-07T03:16:09.983Z,13.03
2022-08-07T03:18:43.995Z,13.05
2022-08-07T03:21:18.964Z,13.00
2022-08-07T03:24:21.080Z,13.01
2022-08-07T03:26:57.913Z,13.02
2022-08-07T03:29:46.078Z,13.01
2022-08-07T03:32:23.853Z,12.98
2022-08-07T03:35:16.624Z,12.98
2022-08-07T03:37:55.336Z,12.98
2022-08-07T03:40:30.747Z,12.96
2022-08-07T03:43:13.696Z,12.97
2022-08-07T03:45:47.618Z,13.00
2022-08-07T03:48:19.161Z,13.00
2022-08-07T03:50:56.250Z,12.99
2022-08-07T03:54:00.691Z,12.96
2022-08-07T03:56:32.646Z,13.01
2022-08-07T03:59:09.898Z,13.01
2022-08-07T04:01:45.427Z,13.02
2022-08-07T04:04:17.925Z,13.04
2022-08-07T04:06:50.693Z,13.06
2022-08-07T04:09:23.209Z,13.05
2022-08-07T04:12:25.208Z,13.10
2022-08-07T04:14:49.001Z,13.16
2022-08-07T04:17:21.875Z,13.16
2022-08-07T04:19:54.992Z,13.23
2022-08-07T04:22:27.513Z,13.20
2022-08-07T04:25:01.396Z,13.29
2022-08-07T04:27:35.530Z,13.29
2022-08-07T04:30:35.649Z,13.31
2022-08-07T04:33:10.404Z,13.38
2022-08-07T04:35:50.429Z,13.44
2022-08-07T04:38:25.378Z,13.48
2022-08-07T04:40:57.017Z,13.47
2022-08-07T04:44:12.689Z,13.51
2022-08-07T04:46:40.039Z,13.53
2022-08-07T04:50:08.038Z,13.60
2022-08-07T04:52:57.651Z,13.63
2022-08-07T04:58:13.161Z,13.60
2022-08-07T04:59:18.289Z,13.60
2022-08-07T05:02:11.229Z,13.62
2022-08-07T05:05:11.584Z,13.66
2022-08-07T05:08:59.390Z,13.70
2022-08-07T05:11:58.951Z,13.70
2022-08-07T05:14:55.290Z,13.71
2022-08-07T05:17:52.262Z,13.75
2022-08-07T05:20:27.219Z,13.93
2022-08-07T05:23:02.012Z,14.07
2022-08-07T05:25:36.779Z,14.18
2022-08-07T05:28:27.523Z,14.33
2022-08-07T05:30:59.876Z,14.44
2022-08-07T05:33:35.482Z,14.43
2022-08-07T05:36:12.168Z,14.33
2022-08-07T05:39:01.140Z,14.49
2022-08-07T05:42:02.686Z,14.56
2022-08-07T05:44:37.922Z,14.61
2022-08-07T05:47:38.646Z,14.64
2022-08-07T05:50:10.828Z,14.61
2022-08-07T05:52:42.274Z,14.47
2022-08-07T05:55:12.519Z,14.61
2022-08-07T05:57:46.608Z,14.62
2022-08-07T06:00:18.096Z,14.52
2022-08-07T06:02:50.849Z,14.53
2022-08-07T06:05:25.753Z,14.57
2022-08-07T06:08:13.169Z,14.59
2022-08-07T06:10:51.267Z,14.68
2022-08-07T06:14:10.349Z,14.82
2022-08-07T06:16:16.527Z,14.83
2022-08-07T06:18:51.881Z,14.94
2022-08-07T06:22:15.203Z,15.04
2022-08-07T06:24:38.180Z,15.13
2022-08-07T06:27:07.867Z,15.16
2022-08-07T06:29:39.012Z,15.18
2022-08-07T06:32:09.372Z,15.21
2022-08-07T06:34:45.258Z,15.22
2022-08-07T06:37:17.074Z,15.30
2022-08-07T06:40:13.237Z,15.29
2022-08-07T06:42:39.990Z,15.37
2022-08-07T06:45:18.358Z,15.49
2022-08-07T06:47:58.790Z,15.53
2022-08-07T06:50:31.598Z,15.55
2022-08-07T06:53:04.171Z,15.61
2022-08-07T06:55:53.869Z,15.65
2022-08-07T06:58:28.808Z,15.70
2022-08-07T07:01:00.354Z,15.67
2022-08-07T07:03:49.089Z,15.68
2022-08-07T07:06:23.848Z,15.78
2022-08-07T07:08:58.076Z,15.77
2022-08-07T07:12:07.790Z,15.85
2022-08-07T07:14:22.306Z,15.93
2022-08-07T07:16:56.643Z,16.00
2022-08-07T07:19:55.631Z,16.10
2022-08-07T07:22:36.364Z,16.14
2022-08-07T07:26:35.523Z,16.27
2022-08-07T07:28:29.874Z,16.31
2022-08-07T07:31:21.643Z,16.46
2022-08-07T07:33:57.847Z,16.56
2022-08-07T07:36:29.673Z,16.75
2022-08-07T07:39:04.690Z,16.91
2022-08-07T07:42:08.628Z,17.02
2022-08-07T07:44:29.256Z,17.13
2022-08-07T07:47:13.985Z,17.14
2022-08-07T07:50:33.819Z,17.15
2022-08-07T07:52:41.412Z,17.20
2022-08-07T07:55:13.310Z,17.30
2022-08-07T07:57:53.217Z,17.53
2022-08-07T08:00:29.555Z,17.83
2022-08-07T08:03:08.678Z,18.05
2022-08-07T08:05:51.121Z,18.20
2022-08-07T08:08:34.463Z,18.21
2022-08-07T08:11:16.401Z,18.12
2022-08-07T08:13:53.100Z,18.01
2022-08-07T08:16:31.399Z,18.08
2022-08-07T08:19:09.644Z,18.18
2022-08-07T08:22:09.855Z,18.23
2022-08-07T08:25:09.378Z,18.25
2022-08-07T08:27:56.929Z,18.25
2022-08-07T08:30:34.599Z,18.23
2022-08-07T08:33:10.450Z,18.24
2022-08-07T08:35:50.024Z,18.28
2022-08-07T08:38:29.224Z,18.28
2022-08-07T08:41:31.439Z,18.37
2022-08-07T08:44:54.519Z,18.24
2022-08-07T08:47:52.691Z,18.09
2022-08-07T08:50:39.091Z,18.03
2022-08-07T08:53:29.431Z,18.01
2022-08-07T08:56:04.734Z,18.06
2022-08-07T08:58:58.028Z,18.12
2022-08-07T09:01:44.159Z,18.25
2022-08-07T09:04:33.813Z,18.38
2022-08-07T09:07:12.112Z,18.48
2022-08-07T09:09:56.899Z,18.63
2022-08-07T09:12:53.735Z,18.59
2022-08-07T09:16:22.202Z,18.52
2022-08-07T09:18:35.418Z,18.53
2022-08-07T09:21:33.822Z,18.45
2022-08-07T09:24:32.971Z,18.51
2022-08-07T09:27:21.067Z,18.58
2022-08-07T09:30:03.183Z,18.63
2022-08-07T09:32:51.149Z,18.66
2022-08-07T09:36:02.649Z,18.67
2022-08-07T09:38:53.720Z,18.70
2022-08-07T09:41:36.208Z,18.81
2022-08-07T09:44:46.529Z,18.85
2022-08-07T09:48:00.341Z,18.88
2022-08-07T09:50:59.519Z,18.88
2022-08-07T09:53:40.847Z,18.98
2022-08-07T09:56:43.309Z,19.07
2022-08-07T09:59:46.197Z,19.24
2022-08-07T10:02:40.288Z,19.40
2022-08-07T10:06:00.292Z,19.57
2022-08-07T10:09:05.594Z,19.69
2022-08-07T10:12:02.287Z,19.82
2022-08-07T10:15:00.651Z,19.94
2022-08-07T10:18:04.296Z,20.00
2022-08-07T10:21:20.018Z,20.14
2022-08-07T10:24:21.642Z,20.10
2022-08-07T10:27:13.354Z,20.02
2022-08-07T10:30:13.001Z,19.90
2022-08-07T10:33:19.816Z,19.92
2022-08-07T10:36:29.673Z,20.13
2022-08-07T10:39:41.263Z,20.11
2022-08-07T10:42:21.160Z,19.99
2022-08-07T10:45:48.016Z,20.03
2022-08-07T10:48:41.207Z,20.22
2022-08-07T10:51:57.359Z,20.59
2022-08-07T10:54:37.204Z,20.75
2022-08-07T10:57:34.484Z,20.86
2022-08-07T11:00:09.758Z,20.88
2022-08-07T11:03:11.359Z,20.96
2022-08-07T11:05:50.853Z,21.09
2022-08-07T11:08:53.106Z,20.95
2022-08-07T11:11:35.661Z,20.84
2022-08-07T11:14:45.196Z,20.73
2022-08-07T11:17:43.327Z,20.67
2022-08-07T11:20:42.003Z,20.48
2022-08-07T11:23:36.586Z,20.35
2022-08-07T11:26:17.761Z,20.30
2022-08-07T11:28:57.055Z,20.32
2022-08-07T11:31:37.569Z,20.43
2022-08-07T11:34:45.019Z,20.26
2022-08-07T11:37:57.756Z,20.27
2022-08-07T11:40:57.169Z,20.39
2022-08-07T11:43:54.925Z,20.63
2022-08-07T11:46:40.519Z,20.63
2022-08-07T11:49:51.171Z,20.80
2022-08-07T11:52:39.727Z,20.95
2022-08-07T11:55:18.879Z,20.91
2022-08-07T11:58:39.516Z,20.87
2022-08-07T12:02:00.605Z,20.84
2022-08-07T12:04:39.239Z,20.99
2022-08-07T12:07:20.310Z,21.19
2022-08-07T12:10:05.545Z,21.49
2022-08-07T12:12:41.400Z,21.59
2022-08-07T12:15:46.025Z,21.69
2022-08-07T12:18:31.003Z,21.70
2022-08-07T12:21:56.063Z,21.75
2022-08-07T12:24:37.813Z,21.84
2022-08-07T12:27:16.203Z,21.98
2022-08-07T12:29:53.933Z,22.07
2022-08-07T12:33:19.099Z,22.03
2022-08-07T12:35:58.171Z,21.87
2022-08-07T12:38:38.664Z,21.83
2022-08-07T12:41:14.637Z,21.78
2022-08-07T12:44:02.069Z,21.93
2022-08-07T12:47:03.146Z,22.08
2022-08-07T12:50:04.913Z,22.16
2022-08-07T12:53:17.866Z,22.25
2022-08-07T12:56:16.974Z,22.12
2022-08-07T12:58:57.217Z,22.06
2022-08-07T13:02:09.818Z,22.20
2022-08-07T13:05:01.789Z,22.23
2022-08-07T13:08:13.683Z,22.18
2022-08-07T13:10:57.307Z,22.19
2022-08-07T13:13:47.900Z,22.15
2022-08-07T13:16:51.007Z,22.17
2022-08-07T13:19:50.658Z,22.37
2022-08-07T13:22:32.407Z,22.70
2022-08-07T13:25:29.864Z,23.03
2022-08-07T13:28:13.426Z,22.99
2022-08-07T13:31:01.419Z,23.11
2022-08-07T13:34:33.179Z,23.17
2022-08-07T13:37:20.697Z,23.11
2022-08-07T13:40:36.188Z,23.23
2022-08-07T13:43:15.458Z,23.43
2022-08-07T13:46:21.798Z,23.46
2022-08-07T13:48:40.758Z,23.47
2022-08-07T13:51:27.207Z,23.57
2022-08-07T13:54:03.697Z,23.46
2022-08-07T13:56:41.313Z,23.37
2022-08-07T13:59:27.798Z,23.26
2022-08-07T14:02:10.744Z,23.13
2022-08-07T14:04:54.336Z,22.73
2022-08-07T14:07:30.771Z,22.91
2022-08-07T14:10:17.388Z,22.94
2022-08-07T14:13:10.577Z,22.98
2022-08-07T14:15:50.552Z,22.97
2022-08-07T14:18:33.065Z,23.03
2022-08-07T14:22:02.082Z,23.08
2022-08-07T14:24:27.444Z,23.02
2022-08-07T14:27:02.617Z,23.14
2022-08-07T14:30:05.164Z,23.39
2022-08-07T14:32:45.780Z,23.50
2022-08-07T14:35:43.407Z,23.59
2022-08-07T14:38:26.771Z,23.40
2022-08-07T14:44:11.597Z,23.47
2022-08-07T14:49:56.686Z,24.09
2022-08-07T14:52:28.726Z,24.17
2022-08-07T14:55:01.323Z,24.21
2022-08-07T15:00:31.161Z,24.01
2022-08-07T15:03:16.503Z,24.04
2022-08-07T15:12:01.949Z,24.19
2022-08-07T15:17:55.108Z,24.00
2022-08-07T15:20:54.743Z,23.78
2022-08-07T15:25:12.791Z,23.70
2022-08-07T15:26:28.779Z,23.72
2022-08-07T15:32:00.657Z,23.63
2022-08-07T15:34:37.986Z,23.67
2022-08-07T15:40:34.859Z,23.92
2022-08-07T15:43:53.154Z,24.18
2022-08-07T15:46:32.370Z,24.15
2022-08-07T15:49:14.544Z,23.89
2022-08-07T15:54:39.601Z,23.54
2022-08-07T15:57:28.150Z,23.56
2022-08-07T16:00:06.894Z,23.53
2022-08-07T16:02:46.738Z,23.49
2022-08-07T16:05:23.158Z,24.00
2022-08-07T16:08:31.125Z,24.37
2022-08-07T16:11:29.039Z,24.84
2022-08-07T16:14:36.137Z,24.72
2022-08-07T16:18:02.215Z,24.62
2022-08-07T16:20:33.506Z,24.43
2022-08-07T16:24:00.890Z,24.40
2022-08-07T16:26:59.307Z,24.49
2022-08-07T16:30:29.509Z,24.27
2022-08-07T16:34:01.803Z,24.22
2022-08-07T16:36:31.385Z,24.31
2022-08-07T16:39:33.720Z,24.48
2022-08-07T16:42:18.501Z,24.57
2022-08-07T16:48:09.821Z,24.24
2022-08-07T16:51:07.318Z,23.95
2022-08-07T16:54:19.147Z,23.68
2022-08-07T16:57:03.848Z,23.40
2022-08-07T16:59:46.141Z,23.13
2022-08-07T17:02:51.260Z,23.03
2022-08-07T17:06:02.168Z,22.65
2022-08-07T17:09:08.650Z,22.17
2022-08-07T17:12:01.992Z,21.95
2022-08-07T17:14:50.945Z,22.05
2022-08-07T17:17:26.999Z,22.38
2022-08-07T17:20:31.001Z,22.16
2022-08-07T17:23:54.579Z,21.88
2022-08-07T17:26:49.745Z,21.60
2022-08-07T17:30:14.245Z,21.39
2022-08-07T17:32:30.627Z,21.19
2022-08-07T17:35:50.341Z,21.10
2022-08-07T17:38:33.264Z,20.97
2022-08-07T17:42:01.121Z,20.81
2022-08-07T17:44:14.189Z,20.85
2022-08-07T17:46:53.228Z,21.13
2022-08-07T17:49:44.981Z,21.27
2022-08-07T17:52:41.402Z,21.27
2022-08-07T17:55:55.782Z,21.12
2022-08-07T17:58:30.043Z,20.96
2022-08-07T18:01:20.593Z,20.67
2022-08-07T18:04:41.601Z,20.50
2022-08-07T18:07:43.595Z,20.26
2022-08-07T18:10:32.162Z,20.14
2022-08-07T18:13:17.718Z,20.00
2022-08-07T18:16:08.411Z,19.81
2022-08-07T18:21:08.441Z,19.74
2022-08-07T18:21:58.537Z,19.60
2022-08-07T18:24:42.281Z,19.43
2022-08-07T18:27:38.740Z,19.38
2022-08-07T18:33:56.004Z,19.16
2022-08-07T18:36:53.990Z,19.06
2022-08-07T18:40:08.271Z,18.87
2022-08-07T18:43:06.510Z,18.82
2022-08-07T18:46:24.567Z,18.76
2022-08-07T18:50:31.210Z,18.69
2022-08-07T18:52:38.676Z,18.61
2022-08-07T18:55:42.964Z,18.60
2022-08-07T18:58:25.803Z,18.48
2022-08-07T19:01:05.914Z,18.41
2022-08-07T19:04:02.208Z,18.33
2022-08-07T19:06:51.387Z,18.29
2022-08-07T19:09:57.245Z,18.25
2022-08-07T19:12:57.834Z,18.20
2022-08-07T19:16:05.503Z,18.16
2022-08-07T19:18:58.682Z,18.15
2022-08-07T19:21:58.532Z,18.12
2022-08-07T19:24:50.680Z,18.13
2022-08-07T19:28:29.326Z,18.12
2022-08-07T19:31:05.817Z,17.99
2022-08-07T19:33:13.221Z,18.11
2022-08-07T19:35:53.709Z,18.11
2022-08-07T19:38:28.099Z,18.10
2022-08-07T19:41:02.792Z,18.12
2022-08-07T19:43:50.096Z,18.10
2022-08-07T19:46:29.010Z,18.12
2022-08-07T19:49:02.684Z,18.16
2022-08-07T19:51:52.392Z,18.10
2022-08-07T19:54:33.180Z,18.05
2022-08-07T19:57:59.757Z,17.99
2022-08-07T20:00:28.385Z,17.99
2022-08-07T20:03:33.826Z,17.97
2022-08-07T20:06:02.235Z,17.89
2022-08-07T20:08:34.366Z,17.93
2022-08-07T20:11:14.981Z,17.83
2022-08-07T20:13:55.289Z,17.71
2022-08-07T20:16:36.188Z,17.71
2022-08-07T20:19:11.008Z,17.66
2022-08-07T20:21:47.680Z,17.61
2022-08-07T20:24:23.294Z,17.58
2022-08-07T20:26:57.135Z,17.53
2022-08-07T20:29:47.752Z,17.53
2022-08-07T20:32:26.537Z,17.47
2022-08-07T20:35:26.095Z,17.41
2022-08-07T20:37:59.533Z,17.24
2022-08-07T20:40:34.502Z,17.31
2022-08-07T20:43:14.470Z,17.27
2022-08-07T20:46:27.011Z,17.23
2022-08-07T20:48:58.141Z,17.18
2022-08-07T20:51:50.394Z,17.13
2022-08-07T20:54:29.812Z,17.10
2022-08-07T20:57:08.218Z,17.03
2022-08-07T21:00:07.625Z,16.96
2022-08-07T21:02:55.479Z,16.96
2022-08-07T21:05:56.136Z,16.99
2022-08-07T21:08:44.654Z,16.98
2022-08-07T21:11:29.022Z,16.95
2022-08-07T21:14:33.434Z,16.98
2022-08-07T21:18:20.584Z,16.84
2022-08-07T21:20:06.131Z,16.72
2022-08-07T21:22:53.369Z,16.79
2022-08-07T21:25:29.813Z,16.76
2022-08-07T21:28:49.529Z,16.75
2022-08-07T21:32:41.990Z,16.77
2022-08-07T21:34:46.316Z,16.72
2022-08-07T21:37:59.658Z,16.65
2022-08-07T21:41:09.918Z,16.62
2022-08-07T21:44:14.318Z,16.59
2022-08-07T21:47:36.276Z,16.57
2022-08-07T21:50:14.588Z,16.52
2022-08-07T21:53:18.116Z,16.48
2022-08-07T21:55:59.590Z,16.50
2022-08-07T21:59:04.219Z,16.41
2022-08-07T22:02:10.864Z,16.44
2022-08-07T22:04:53.914Z,16.45
2022-08-07T22:07:31.652Z,16.44
2022-08-07T22:10:24.911Z,16.44
2022-08-07T22:13:03.394Z,16.44
2022-08-07T22:16:43.509Z,16.46
2022-08-07T22:18:47.554Z,16.48
2022-08-07T22:22:04.680Z,16.43
2022-08-07T22:24:32.705Z,16.48
2022-08-07T22:27:34.113Z,16.47
2022-08-07T22:30:17.188Z,16.44
2022-08-07T22:33:02.618Z,16.47
2022-08-07T22:35:43.995Z,16.47
2022-08-07T22:38:28.573Z,16.44
2022-08-07T22:41:07.521Z,16.39
2022-08-07T22:43:52.151Z,16.39
2022-08-07T22:47:05.917Z,16.37
2022-08-07T22:50:06.981Z,16.36
2022-08-07T22:52:51.494Z,16.31
2022-08-07T22:55:48.254Z,16.16
2022-08-07T22:58:42.978Z,16.24
2022-08-07T23:01:49.476Z,16.21
2022-08-07T23:04:57.757Z,16.18
2022-08-07T23:08:22.286Z,16.18
2022-08-07T23:11:27.358Z,16.19
2022-08-07T23:14:41.929Z,16.10
2022-08-07T23:17:35.850Z,16.12
2022-08-07T23:20:51.332Z,16.16
2022-08-07T23:24:05.855Z,16.17
2022-08-07T23:27:02.632Z,16.19
2022-08-07T23:30:35.622Z,16.08
2022-08-07T23:34:34.105Z,16.21
2022-08-07T23:36:29.248Z,16.20
2022-08-07T23:39:22.196Z,16.25
2022-08-07T23:42:21.588Z,16.26
2022-08-07T23:45:03.693Z,16.21
2022-08-07T23:48:04.723Z,16.19
2022-08-07T23:50:57.107Z,16.14
2022-08-07T23:53:49.768Z,16.23
2022-08-07T23:57:03.467Z,16.25
